Overview Statistics Trail Chart Weather Telemetry Raw packets
 

This is the latest recevied weather packets stored in our database for station/object OM4MO-10. If no packets are shown the sender has not sent any weather packets the latest 10 day(s).

<< 24 25 26 27 28 29 30 >>
Time Temp. Humidity Pressure Rain* Wind** Luminosity Snow
1788087645 26.11° C 80% 1024.5 hPa - - - -
1788086745 26.11° C 80% 1023.7 hPa - - - -
1788085845 25.56° C 80% 1024.9 hPa - - - -
1788084944 26.11° C 80% 1022.5 hPa - - - -
1788084044 25.56° C 80% 1024.2 hPa - - - -
1788083144 25° C 80% 1024.4 hPa - - - -
1788082244 25° C 80% 1022.1 hPa - - - -
1788081344 24.44° C 80% 1023.7 hPa - - - -
1788080444 23.89° C 80% 1021.7 hPa - - - -
1788079544 23.33° C 80% 1022.1 hPa - - - -
1788078643 22.78° C 79% 1020.5 hPa - - - -
1788077743 22.78° C 79% 1020.6 hPa - - - -
1788076843 22.22° C 79% 1020.5 hPa - - - -
1788075943 21.11° C 79% 1020.4 hPa - - - -
1788075043 20° C 79% 1020.4 hPa - - - -
1788074143 19.44° C 79% 1020.4 hPa - - - -
1788073243 18.33° C 79% 1020.3 hPa - - - -
1788072342 17.78° C 79% 1020.2 hPa - - - -
1788071442 17.22° C 79% 1020.3 hPa - - - -
1788070542 16.11° C 79% 1020.4 hPa - - - -
1788069642 21.67° C 79% 754.7 hPa - - - -
1788068741 14.44° C 79% 1019.8 hPa - - - -
1788067841 13.33° C 79% 1016 hPa - - - -
1788066940 12.78° C 79% 1017 hPa - - - -
1788066039 21.67° C 79% 754.7 hPa - - - -

* Rain since midnight (hover to see other rain measurements)
** Current wind speed in m/s (hover to see current wind gust speed)